createdAt,value
2022-08-26T00:01:44.781Z,22.10
2022-08-26T00:04:34.709Z,22.00
2022-08-26T00:07:22.901Z,22.00
2022-08-26T00:10:12.371Z,22.00
2022-08-26T00:13:00.625Z,22.00
2022-08-26T00:15:50.312Z,21.90
2022-08-26T00:18:40.774Z,21.70
2022-08-26T00:21:30.386Z,21.70
2022-08-26T00:24:19.076Z,21.60
2022-08-26T00:27:07.397Z,21.50
2022-08-26T00:29:55.589Z,21.50
2022-08-26T00:32:46.425Z,21.40
2022-08-26T00:35:35.123Z,21.40
2022-08-26T00:38:26.215Z,21.30
2022-08-26T00:41:14.759Z,21.30
2022-08-26T00:44:05.584Z,21.10
2022-08-26T00:46:58.400Z,21.00
2022-08-26T00:49:48.919Z,20.90
2022-08-26T00:52:38.494Z,20.90
2022-08-26T00:55:34.647Z,21.00
2022-08-26T00:58:32.707Z,21.10
2022-08-26T01:01:23.114Z,21.00
2022-08-26T01:04:12.698Z,21.10
2022-08-26T01:07:02.251Z,21.10
2022-08-26T01:09:50.755Z,21.00
2022-08-26T01:12:43.739Z,21.00
2022-08-26T01:15:36.470Z,20.90
2022-08-26T01:18:25.684Z,20.90
2022-08-26T01:21:22.551Z,20.90
2022-08-26T01:24:13.871Z,20.90
2022-08-26T01:27:06.075Z,20.90
2022-08-26T01:29:55.603Z,20.70
2022-08-26T01:32:44.737Z,20.60
2022-08-26T01:35:33.522Z,20.60
2022-08-26T01:38:23.641Z,20.50
2022-08-26T01:41:19.822Z,20.50
2022-08-26T01:44:15.723Z,20.50
2022-08-26T01:47:06.499Z,20.50
2022-08-26T01:49:57.515Z,20.50
2022-08-26T01:52:49.888Z,20.50
2022-08-26T01:55:46.092Z,20.40
2022-08-26T01:58:43.848Z,20.30
2022-08-26T02:01:32.664Z,20.20
2022-08-26T02:04:25.208Z,20.20
2022-08-26T02:07:13.844Z,20.20
2022-08-26T02:10:02.469Z,20.20
2022-08-26T02:12:51.623Z,20.20
2022-08-26T02:15:43.984Z,20.30
2022-08-26T02:18:36.579Z,20.30
2022-08-26T02:21:25.360Z,20.20
2022-08-26T02:24:16.934Z,20.10
2022-08-26T02:27:06.730Z,20.10
2022-08-26T02:29:58.044Z,20.10
2022-08-26T02:32:49.559Z,20.00
2022-08-26T02:35:39.231Z,20.00
2022-08-26T02:38:27.794Z,20.00
2022-08-26T02:41:16.122Z,20.00
2022-08-26T02:44:07.194Z,19.90
2022-08-26T02:46:55.569Z,20.00
2022-08-26T02:49:47.384Z,20.00
2022-08-26T02:52:35.707Z,19.90
2022-08-26T02:55:24.909Z,19.80
2022-08-26T02:58:13.064Z,19.70
2022-08-26T03:01:01.780Z,19.70
2022-08-26T03:03:53.309Z,19.60
2022-08-26T03:06:42.994Z,19.70
2022-08-26T03:09:35.881Z,19.70
2022-08-26T03:12:24.040Z,19.60
2022-08-26T03:15:17.813Z,19.70
2022-08-26T03:18:06.670Z,19.60
2022-08-26T03:20:55.444Z,19.50
2022-08-26T03:23:46.070Z,19.50
2022-08-26T03:26:34.340Z,19.50
2022-08-26T03:29:42.379Z,19.50
2022-08-26T03:32:30.673Z,19.50
2022-08-26T03:35:19.032Z,19.40
2022-08-26T03:38:11.422Z,19.40
2022-08-26T03:41:01.328Z,19.40
2022-08-26T03:43:50.939Z,19.30
2022-08-26T03:46:39.674Z,19.30
2022-08-26T03:49:29.022Z,19.20
2022-08-26T03:52:17.310Z,19.10
2022-08-26T03:55:07.068Z,19.20
2022-08-26T03:57:56.536Z,19.20
2022-08-26T04:00:45.846Z,19.30
2022-08-26T04:03:52.141Z,19.30
2022-08-26T04:06:43.302Z,19.40
2022-08-26T04:09:32.961Z,19.30
2022-08-26T04:12:25.486Z,19.30
2022-08-26T04:15:17.772Z,19.30
2022-08-26T04:18:06.273Z,19.20
2022-08-26T04:20:54.719Z,19.20
2022-08-26T04:23:47.616Z,19.20
2022-08-26T04:26:39.495Z,19.20
2022-08-26T04:29:31.152Z,19.10
2022-08-26T04:32:21.196Z,19.20
2022-08-26T04:35:09.768Z,19.20
2022-08-26T04:37:58.877Z,19.10
2022-08-26T04:40:47.588Z,19.10
2022-08-26T04:43:35.770Z,19.10
2022-08-26T04:46:25.925Z,19.10
2022-08-26T04:49:15.585Z,19.20
2022-08-26T04:52:05.006Z,19.30
2022-08-26T04:54:53.378Z,19.20
2022-08-26T04:57:41.545Z,19.20
2022-08-26T05:00:29.760Z,19.20
2022-08-26T05:03:18.855Z,19.30
2022-08-26T05:06:08.769Z,19.40
2022-08-26T05:08:57.853Z,19.40
2022-08-26T05:11:48.586Z,19.50
2022-08-26T05:14:41.569Z,19.50
2022-08-26T05:17:29.819Z,19.50
2022-08-26T05:20:20.649Z,19.50
2022-08-26T05:23:15.928Z,19.60
2022-08-26T05:26:09.146Z,19.60
2022-08-26T05:28:59.017Z,19.70
2022-08-26T05:31:47.606Z,19.70
2022-08-26T05:34:37.474Z,19.70
2022-08-26T05:37:26.497Z,19.70
2022-08-26T05:40:17.110Z,19.80
2022-08-26T05:43:10.390Z,19.80
2022-08-26T05:46:07.286Z,20.00
2022-08-26T05:48:55.709Z,20.10
2022-08-26T05:51:46.346Z,20.10
2022-08-26T05:54:36.025Z,20.30
2022-08-26T05:57:25.638Z,20.40
2022-08-26T06:00:16.169Z,20.40
2022-08-26T06:03:05.154Z,20.50
2022-08-26T06:05:53.553Z,20.60
2022-08-26T06:08:42.202Z,20.70
2022-08-26T06:11:32.636Z,20.80
2022-08-26T06:14:22.994Z,20.90
2022-08-26T06:17:11.323Z,20.90
2022-08-26T06:20:01.589Z,21.00
2022-08-26T06:23:06.711Z,21.10
2022-08-26T06:25:55.340Z,21.10
2022-08-26T06:28:45.816Z,21.30
2022-08-26T06:31:36.813Z,21.40
2022-08-26T06:34:26.590Z,21.50
2022-08-26T06:37:18.160Z,21.60
2022-08-26T06:40:07.497Z,21.70
2022-08-26T06:42:55.867Z,21.80
2022-08-26T06:45:45.844Z,21.90
2022-08-26T06:48:37.289Z,22.00
2022-08-26T06:51:27.561Z,22.10
2022-08-26T06:54:15.917Z,22.20
2022-08-26T06:57:04.117Z,22.30
2022-08-26T06:59:52.325Z,22.40
2022-08-26T07:02:40.648Z,22.60
2022-08-26T07:05:36.762Z,22.60
2022-08-26T07:08:24.937Z,22.70
2022-08-26T07:11:13.394Z,22.80
2022-08-26T07:14:01.993Z,22.90
2022-08-26T07:16:50.878Z,23.00
2022-08-26T07:19:39.071Z,23.10
2022-08-26T07:22:29.170Z,23.30
2022-08-26T07:25:19.142Z,23.30
2022-08-26T07:28:07.707Z,23.40
2022-08-26T07:30:56.181Z,23.50
2022-08-26T07:33:47.082Z,23.60
2022-08-26T07:36:35.820Z,23.70
2022-08-26T07:39:26.432Z,23.80
2022-08-26T07:42:18.492Z,23.90
2022-08-26T07:45:07.717Z,23.90
2022-08-26T07:47:55.952Z,23.90
2022-08-26T07:50:50.137Z,24.00
2022-08-26T07:53:39.850Z,24.00
2022-08-26T07:56:29.384Z,24.10
2022-08-26T07:59:18.685Z,24.20
2022-08-26T08:02:07.049Z,24.20
2022-08-26T08:04:56.847Z,24.30
2022-08-26T08:07:45.623Z,24.40
2022-08-26T08:10:36.498Z,24.50
2022-08-26T08:13:26.267Z,24.50
2022-08-26T08:16:14.565Z,24.60
2022-08-26T08:19:02.802Z,24.70
2022-08-26T08:21:52.060Z,24.70
2022-08-26T08:24:40.716Z,24.80
2022-08-26T08:27:28.929Z,24.90
2022-08-26T08:30:22.864Z,24.90
2022-08-26T08:33:12.461Z,25.00
2022-08-26T08:36:02.081Z,25.10
2022-08-26T08:38:50.896Z,25.20
2022-08-26T08:41:52.465Z,25.30
2022-08-26T08:44:44.085Z,25.40
2022-08-26T08:47:37.997Z,25.50
2022-08-26T08:50:29.605Z,25.60
2022-08-26T08:53:23.148Z,25.60
2022-08-26T08:56:17.730Z,25.70
2022-08-26T08:59:14.838Z,25.70
2022-08-26T09:02:11.192Z,25.80
2022-08-26T09:05:22.373Z,25.90
2022-08-26T09:08:12.806Z,26.00
2022-08-26T09:11:01.959Z,26.20
2022-08-26T09:13:52.346Z,26.20
2022-08-26T09:16:45.121Z,26.30
2022-08-26T09:19:41.078Z,26.40
2022-08-26T09:22:32.560Z,26.50
2022-08-26T09:25:22.221Z,26.60
2022-08-26T09:28:16.863Z,26.70
2022-08-26T09:31:14.131Z,26.80
2022-08-26T09:34:17.487Z,27.00
2022-08-26T09:37:06.067Z,27.00
2022-08-26T09:40:12.211Z,27.00
2022-08-26T09:43:10.661Z,27.10
2022-08-26T09:46:13.464Z,27.20
2022-08-26T09:49:27.582Z,27.30
2022-08-26T09:52:22.397Z,27.30
2022-08-26T09:55:16.115Z,27.30
2022-08-26T09:58:07.896Z,27.40
2022-08-26T10:01:01.453Z,27.50
2022-08-26T10:03:50.280Z,27.70
2022-08-26T10:06:42.135Z,27.90
2022-08-26T10:09:34.005Z,27.90
2022-08-26T10:12:24.250Z,27.90
2022-08-26T10:15:13.022Z,27.70
2022-08-26T10:18:08.174Z,27.70
2022-08-26T10:21:07.280Z,27.70
2022-08-26T10:23:59.856Z,27.70
2022-08-26T10:27:02.231Z,27.80
2022-08-26T10:29:54.292Z,28.00
2022-08-26T10:32:45.403Z,28.10
2022-08-26T10:35:36.085Z,28.30
2022-08-26T10:38:30.460Z,28.50
2022-08-26T10:41:24.198Z,28.60
2022-08-26T10:44:16.173Z,28.80
2022-08-26T10:47:14.027Z,28.90
2022-08-26T10:50:04.613Z,28.70
2022-08-26T10:53:03.036Z,28.70
2022-08-26T10:55:57.556Z,28.80
2022-08-26T10:58:58.392Z,29.00
2022-08-26T11:01:52.464Z,29.20
2022-08-26T11:04:49.849Z,29.50
2022-08-26T11:07:41.810Z,29.70
2022-08-26T11:10:57.956Z,29.80
2022-08-26T11:14:04.424Z,30.10
2022-08-26T11:16:55.133Z,30.20
2022-08-26T11:20:03.288Z,30.20
2022-08-26T11:22:59.620Z,30.30
2022-08-26T11:26:32.734Z,30.40
2022-08-26T11:29:59.297Z,30.60
2022-08-26T11:32:52.293Z,30.50
2022-08-26T11:35:50.782Z,30.40
2022-08-26T11:38:42.962Z,30.40
2022-08-26T11:41:31.927Z,30.50
2022-08-26T11:44:21.830Z,30.50
2022-08-26T11:47:11.645Z,30.50
2022-08-26T11:50:15.239Z,30.70
2022-08-26T11:53:06.590Z,30.90
2022-08-26T11:55:58.149Z,31.00
2022-08-26T11:58:48.008Z,31.10
2022-08-26T12:01:38.069Z,31.30
2022-08-26T12:04:31.022Z,31.40
2022-08-26T12:07:25.747Z,31.60
2022-08-26T12:10:29.797Z,31.80
2022-08-26T12:13:22.977Z,31.90
2022-08-26T12:16:11.200Z,32.10
2022-08-26T12:18:59.885Z,32.10
2022-08-26T12:21:49.859Z,32.10
2022-08-26T12:24:44.940Z,32.10
2022-08-26T12:27:39.798Z,32.10
2022-08-26T12:30:29.706Z,32.20
2022-08-26T12:33:22.785Z,32.30
2022-08-26T12:36:12.136Z,32.40
2022-08-26T12:39:09.145Z,32.50
2022-08-26T12:41:59.102Z,32.70
2022-08-26T12:44:54.193Z,32.80
2022-08-26T12:47:44.547Z,32.70
2022-08-26T12:50:33.989Z,32.80
2022-08-26T12:53:24.635Z,32.90
2022-08-26T12:56:28.236Z,32.90
2022-08-26T12:59:25.016Z,33.10
2022-08-26T13:02:37.718Z,32.90
2022-08-26T13:05:28.664Z,32.80
2022-08-26T13:08:25.781Z,32.40
2022-08-26T13:11:16.746Z,31.80
2022-08-26T13:14:07.581Z,31.20
2022-08-26T13:16:55.810Z,30.60
2022-08-26T13:19:45.340Z,30.30
2022-08-26T13:22:34.228Z,30.00
2022-08-26T13:25:22.538Z,29.60
2022-08-26T13:28:10.750Z,29.20
2022-08-26T13:30:59.734Z,29.20
2022-08-26T13:33:48.550Z,29.30
2022-08-26T13:36:39.165Z,29.50
2022-08-26T13:39:28.168Z,29.70
2022-08-26T13:42:16.521Z,29.70
2022-08-26T13:45:06.470Z,29.50
2022-08-26T13:47:54.624Z,29.10
2022-08-26T13:50:42.938Z,28.80
2022-08-26T13:53:32.656Z,28.60
2022-08-26T13:56:21.471Z,28.40
2022-08-26T13:59:09.942Z,28.20
2022-08-26T14:01:58.754Z,28.00
2022-08-26T14:04:47.413Z,27.90
2022-08-26T14:07:35.600Z,27.80
2022-08-26T14:10:25.745Z,27.60
2022-08-26T14:13:14.262Z,27.50
2022-08-26T14:16:03.877Z,27.40
2022-08-26T14:18:52.626Z,27.40
2022-08-26T14:21:40.793Z,27.30
2022-08-26T14:24:29.268Z,27.30
2022-08-26T14:27:18.794Z,27.30
2022-08-26T14:30:08.361Z,27.30
2022-08-26T14:32:59.488Z,27.20
2022-08-26T14:35:49.026Z,27.20
2022-08-26T14:38:38.124Z,27.20
2022-08-26T14:41:27.141Z,27.20
2022-08-26T14:44:18.512Z,27.10
2022-08-26T14:47:07.433Z,27.00
2022-08-26T14:49:55.610Z,27.00
2022-08-26T14:53:01.713Z,27.00
2022-08-26T14:55:50.484Z,26.90
2022-08-26T14:58:38.744Z,27.00
2022-08-26T15:01:30.982Z,26.90
2022-08-26T15:04:20.390Z,26.90
2022-08-26T15:07:12.763Z,27.00
2022-08-26T15:10:01.101Z,26.90
2022-08-26T15:12:49.658Z,26.80
2022-08-26T15:15:38.017Z,26.70
2022-08-26T15:18:27.557Z,26.60
2022-08-26T15:21:15.766Z,26.60
2022-08-26T15:24:05.920Z,26.60
2022-08-26T15:26:54.621Z,26.60
2022-08-26T15:29:42.836Z,26.80
2022-08-26T15:32:31.337Z,27.20
2022-08-26T15:35:20.869Z,27.70
2022-08-26T15:38:09.197Z,28.10
2022-08-26T15:41:01.013Z,28.80
2022-08-26T15:43:51.485Z,29.30
2022-08-26T15:46:39.950Z,29.60
2022-08-26T15:49:28.507Z,30.00
2022-08-26T15:52:18.929Z,30.30
2022-08-26T15:55:08.106Z,30.50
2022-08-26T15:57:56.346Z,30.50
2022-08-26T16:00:45.273Z,30.60
2022-08-26T16:03:33.588Z,30.80
2022-08-26T16:06:24.624Z,31.00
2022-08-26T16:09:14.173Z,31.20
2022-08-26T16:12:02.440Z,31.40
2022-08-26T16:14:51.438Z,31.10
2022-08-26T16:17:41.069Z,31.00
2022-08-26T16:20:29.513Z,30.60
2022-08-26T16:23:17.843Z,30.20
2022-08-26T16:26:11.375Z,29.70
2022-08-26T16:28:59.610Z,29.30
2022-08-26T16:31:51.905Z,29.00
2022-08-26T16:34:56.770Z,28.60
2022-08-26T16:37:45.820Z,28.40
2022-08-26T16:40:34.397Z,28.20
2022-08-26T16:43:23.953Z,28.10
2022-08-26T16:46:14.186Z,28.00
2022-08-26T16:49:04.161Z,27.80
2022-08-26T16:51:52.347Z,27.70
2022-08-26T16:54:41.551Z,27.50
2022-08-26T16:57:29.737Z,27.40
2022-08-26T17:00:24.484Z,27.30
2022-08-26T17:03:13.009Z,27.30
2022-08-26T17:06:01.411Z,27.20
2022-08-26T17:08:49.668Z,27.10
2022-08-26T17:11:37.929Z,27.00
2022-08-26T17:14:26.134Z,26.90
2022-08-26T17:17:15.716Z,26.80
2022-08-26T17:20:08.408Z,26.80
2022-08-26T17:22:56.892Z,26.70
2022-08-26T17:25:45.462Z,26.50
2022-08-26T17:28:34.084Z,26.40
2022-08-26T17:31:23.376Z,26.30
2022-08-26T17:34:13.007Z,26.30
2022-08-26T17:37:01.289Z,26.20
2022-08-26T17:39:49.526Z,26.20
2022-08-26T17:42:38.329Z,26.10
2022-08-26T17:45:27.280Z,26.10
2022-08-26T17:48:15.493Z,26.00
2022-08-26T17:51:09.378Z,25.90
2022-08-26T17:53:57.807Z,25.80
2022-08-26T17:56:45.984Z,25.70
2022-08-26T17:59:34.182Z,25.60
2022-08-26T18:02:23.366Z,25.50
2022-08-26T18:05:13.589Z,25.30
2022-08-26T18:08:03.108Z,25.40
2022-08-26T18:10:51.808Z,25.30
2022-08-26T18:13:46.048Z,25.30
2022-08-26T18:16:38.401Z,25.20
2022-08-26T18:19:26.808Z,25.20
2022-08-26T18:22:15.726Z,25.10
2022-08-26T18:25:06.930Z,25.10
2022-08-26T18:27:55.123Z,25.00
2022-08-26T18:30:43.582Z,25.00
2022-08-26T18:33:31.806Z,24.90
2022-08-26T18:36:23.160Z,24.90
2022-08-26T18:39:12.523Z,24.90
2022-08-26T18:42:02.041Z,24.80
2022-08-26T18:44:51.234Z,24.80
2022-08-26T18:47:39.761Z,24.70
2022-08-26T18:50:28.277Z,24.70
2022-08-26T18:53:17.588Z,24.60
2022-08-26T18:56:05.854Z,24.60
2022-08-26T18:58:55.508Z,24.60
2022-08-26T19:01:45.268Z,24.60
2022-08-26T19:04:33.744Z,24.50
2022-08-26T19:07:22.461Z,24.50
2022-08-26T19:10:11.593Z,24.50
2022-08-26T19:13:00.875Z,24.40
2022-08-26T19:15:52.158Z,24.40
2022-08-26T19:18:40.401Z,24.30
2022-08-26T19:21:29.524Z,24.20
2022-08-26T19:24:18.869Z,24.10
2022-08-26T19:27:08.309Z,24.00
2022-08-26T19:29:58.393Z,23.90
2022-08-26T19:32:47.914Z,23.80
2022-08-26T19:35:37.133Z,23.80
2022-08-26T19:38:25.320Z,23.80
2022-08-26T19:41:19.233Z,23.80
2022-08-26T19:44:10.321Z,23.80
2022-08-26T19:46:58.461Z,23.70
2022-08-26T19:49:48.007Z,23.70
2022-08-26T19:52:36.475Z,23.70
2022-08-26T19:55:26.145Z,23.60
2022-08-26T19:58:14.536Z,23.70
2022-08-26T20:01:02.837Z,23.60
2022-08-26T20:03:51.378Z,23.50
2022-08-26T20:06:41.005Z,23.50
2022-08-26T20:09:29.970Z,23.50
2022-08-26T20:12:18.693Z,23.40
2022-08-26T20:15:08.084Z,23.30
2022-08-26T20:17:56.273Z,23.30
2022-08-26T20:21:02.085Z,23.20
2022-08-26T20:23:51.898Z,23.20
2022-08-26T20:26:42.036Z,23.10
2022-08-26T20:29:30.259Z,23.10
2022-08-26T20:32:18.505Z,23.10
2022-08-26T20:35:08.677Z,23.10
2022-08-26T20:37:56.858Z,23.10
2022-08-26T20:40:46.577Z,23.10
2022-08-26T20:43:34.788Z,23.10
2022-08-26T20:46:24.836Z,23.10
2022-08-26T20:49:14.790Z,23.00
2022-08-26T20:52:03.197Z,23.00
2022-08-26T20:54:51.406Z,23.00
2022-08-26T20:57:43.329Z,23.00
2022-08-26T21:00:31.563Z,23.00
2022-08-26T21:03:19.971Z,23.00
2022-08-26T21:06:09.117Z,22.90
2022-08-26T21:08:57.855Z,22.90
2022-08-26T21:11:46.365Z,22.90
2022-08-26T21:14:35.872Z,22.80
2022-08-26T21:17:24.254Z,22.90
2022-08-26T21:20:12.404Z,22.80
2022-08-26T21:23:00.626Z,22.80
2022-08-26T21:25:49.620Z,22.80
2022-08-26T21:28:39.345Z,22.80
2022-08-26T21:31:29.657Z,22.70
2022-08-26T21:34:18.995Z,22.60
2022-08-26T21:37:16.417Z,22.50
2022-08-26T21:40:05.955Z,22.50
2022-08-26T21:42:54.180Z,22.40
2022-08-26T21:45:42.476Z,22.40
2022-08-26T21:48:34.738Z,22.40
2022-08-26T21:51:26.052Z,22.40
2022-08-26T21:54:14.952Z,22.30
2022-08-26T21:57:03.477Z,22.40
2022-08-26T21:59:52.419Z,22.30
2022-08-26T22:02:40.679Z,22.30
2022-08-26T22:05:30.482Z,22.30
2022-08-26T22:08:19.805Z,22.30
2022-08-26T22:11:09.518Z,22.20
2022-08-26T22:13:57.965Z,22.30
2022-08-26T22:16:50.726Z,22.30
2022-08-26T22:19:46.282Z,22.30
2022-08-26T22:22:36.224Z,22.30
2022-08-26T22:25:24.453Z,22.30
2022-08-26T22:28:12.711Z,22.20
2022-08-26T22:31:01.983Z,22.20
2022-08-26T22:33:50.520Z,22.20
2022-08-26T22:36:44.027Z,22.20
2022-08-26T22:39:34.180Z,22.10
2022-08-26T22:42:22.440Z,22.00
2022-08-26T22:45:12.204Z,21.90
2022-08-26T22:48:04.583Z,21.90
2022-08-26T22:50:59.583Z,21.80
2022-08-26T22:53:48.464Z,21.80
2022-08-26T22:56:38.479Z,21.80
2022-08-26T22:59:27.025Z,21.80
2022-08-26T23:02:15.506Z,21.80
2022-08-26T23:05:03.679Z,21.80
2022-08-26T23:07:51.912Z,21.90
2022-08-26T23:10:42.639Z,21.90
2022-08-26T23:13:32.152Z,21.90
2022-08-26T23:16:21.144Z,22.00
2022-08-26T23:19:10.265Z,22.00
2022-08-26T23:21:58.423Z,22.00
2022-08-26T23:24:46.593Z,22.00
2022-08-26T23:27:35.270Z,21.90
2022-08-26T23:30:27.363Z,21.90
2022-08-26T23:33:15.590Z,21.90
2022-08-26T23:36:06.578Z,21.80
2022-08-26T23:38:54.989Z,21.80
2022-08-26T23:41:44.465Z,21.80
2022-08-26T23:44:33.244Z,21.80
2022-08-26T23:47:22.804Z,21.80
2022-08-26T23:50:11.942Z,21.80
2022-08-26T23:53:08.824Z,21.70
2022-08-26T23:55:56.979Z,21.70
2022-08-26T23:58:45.321Z,21.60
